Time;durP1;ratioP1;P1;durP2;ratioP2;P2;SDS_P1;SDS_P2;PMS_P1;PMS_P2;Temp;Humidity;BMP_temperature;BMP_pressure;BME280_temperature;BME280_humidity;BME280_pressure;Samples;Min_cycle;Max_cycle;Signal;HPM_P1;HPM_P2
2023/05/01 00:01:51;;;;;;;5.20;2.53;;;;;;;7.11;60.50;101280.00;4900453;29;20124;-80
2023/05/01 00:04:17;;;;;;;5.50;3.08;;;;;;;7.06;60.64;101276.44;4883417;29;20043;-81
2023/05/01 00:06:44;;;;;;;5.68;3.17;;;;;;;7.02;61.10;101272.03;4899113;29;20461;-80
2023/05/01 00:09:10;;;;;;;5.05;3.90;;;;;;;6.96;61.93;101272.78;4867990;29;20055;-81
2023/05/01 00:11:37;;;;;;;8.20;3.13;;;;;;;6.91;61.82;101270.13;4883256;29;20548;-80
2023/05/01 00:14:03;;;;;;;7.15;3.20;;;;;;;6.86;62.13;101274.38;4868596;29;20368;-80
2023/05/01 00:16:30;;;;;;;10.15;3.13;;;;;;;6.86;62.98;101265.72;4883707;29;20075;-80
2023/05/01 00:18:57;;;;;;;6.45;2.75;;;;;;;6.84;62.64;101263.06;4883097;29;20051;-80
2023/05/01 00:21:23;;;;;;;5.78;3.15;;;;;;;6.82;62.78;101264.78;4867665;29;20052;-79
2023/05/01 00:23:50;;;;;;;11.10;3.63;;;;;;;6.79;62.91;101256.91;4883159;29;20049;-80
2023/05/01 00:26:17;;;;;;;5.32;4.05;;;;;;;6.79;63.95;101260.41;4883512;29;20047;-80
2023/05/01 00:28:43;;;;;;;3.90;2.42;;;;;;;6.74;63.85;101249.03;4883567;29;20051;-80
2023/05/01 00:31:11;;;;;;;12.13;3.65;;;;;;;6.76;64.83;101251.66;4898966;29;20049;-79
2023/05/01 00:33:37;;;;;;;8.30;3.38;;;;;;;6.76;65.39;101246.47;4898436;29;20045;-80
2023/05/01 00:36:04;;;;;;;7.43;3.53;;;;;;;6.72;64.91;101234.25;4883132;29;20500;-80
2023/05/01 00:38:31;;;;;;;6.53;3.17;;;;;;;6.74;66.17;101245.56;4898333;29;20070;-80
2023/05/01 00:40:57;;;;;;;10.15;3.58;;;;;;;6.68;66.12;101232.47;4883294;29;20364;-80
2023/05/01 00:43:26;;;;;;;7.18;3.53;;;;;;;6.65;65.98;101238.50;4883170;29;20049;-80
2023/05/01 00:45:52;;;;;;;7.15;3.58;;;;;;;6.62;66.42;101236.72;4868406;29;20070;-80
2023/05/01 00:48:19;;;;;;;5.18;3.55;;;;;;;6.58;66.58;101234.03;4867236;29;20540;-80
2023/05/01 00:50:47;;;;;;;6.15;3.90;;;;;;;6.59;66.79;101235.78;4882840;29;20045;-80
2023/05/01 00:53:14;;;;;;;12.23;3.88;;;;;;;6.53;67.26;101230.47;4882940;29;20137;-80
2023/05/01 00:55:42;;;;;;;7.15;3.45;;;;;;;6.47;66.49;101231.25;4899735;29;20045;-80
2023/05/01 00:58:10;;;;;;;6.70;3.22;;;;;;;6.47;66.72;101226.03;4898315;29;20483;-80
2023/05/01 01:00:38;;;;;;;7.45;3.70;;;;;;;6.45;67.04;101225.13;4882735;29;20041;-80
2023/05/01 01:03:04;;;;;;;6.55;3.60;;;;;;;6.42;66.84;101222.50;4898456;29;20120;-80
2023/05/01 01:05:36;;;;;;;5.07;4.10;;;;;;;6.40;66.56;101221.56;4882447;29;20067;-80
2023/05/01 01:08:18;;;;;;;9.57;4.43;;;;;;;6.38;67.40;101225.88;4897927;29;20373;-80
2023/05/01 01:10:57;;;;;;;8.00;4.25;;;;;;;6.34;67.86;101218.88;4881993;29;20044;-79
2023/05/01 01:13:37;;;;;;;9.90;3.60;;;;;;;6.32;67.98;101215.38;4898059;29;20040;-79
2023/05/01 01:16:21;;;;;;;10.40;4.35;;;;;;;6.29;69.09;101217.06;4898054;29;20108;-80
2023/05/01 01:18:59;;;;;;;10.80;3.67;;;;;;;6.28;69.00;101209.25;4882775;29;20104;-80
2023/05/01 01:21:38;;;;;;;6.75;3.47;;;;;;;6.23;68.72;101216.06;4897999;29;20054;-79
2023/05/01 01:24:37;;;;;;;8.68;3.67;;;;;;;6.20;69.82;101211.69;4897463;29;20037;-79
2023/05/01 01:28:07;;;;;;;8.73;3.60;;;;;;;6.16;69.88;101198.63;4898710;29;20044;-79
2023/05/01 01:30:58;;;;;;;7.80;3.75;;;;;;;6.09;69.71;101206.31;4876630;29;20060;-80
2023/05/01 01:33:51;;;;;;;13.75;4.72;;;;;;;6.05;70.23;101199.31;4898814;29;20143;-80
2023/05/01 01:36:34;;;;;;;9.48;4.00;;;;;;;6.03;70.29;101198.41;4882514;29;20040;-80
2023/05/01 01:39:25;;;;;;;8.68;5.25;;;;;;;5.99;70.87;101199.19;4882075;29;20127;-80
2023/05/01 01:41:53;;;;;;;13.32;4.25;;;;;;;5.91;70.52;101186.03;4881568;29;20049;-80
2023/05/01 01:44:33;;;;;;;7.55;3.92;;;;;;;5.88;71.15;101187.69;4866178;29;20543;-80
2023/05/01 01:47:02;;;;;;;8.73;4.07;;;;;;;5.86;71.31;101181.59;4866383;29;20041;-80
2023/05/01 01:49:31;;;;;;;8.02;4.25;;;;;;;5.84;71.66;101186.75;4882238;29;20037;-80
2023/05/01 01:52:01;;;;;;;9.52;4.82;;;;;;;5.82;71.95;101182.38;4882031;29;20037;-80
2023/05/01 01:54:40;;;;;;;8.25;4.35;;;;;;;5.77;72.58;101177.09;4882122;29;20041;-80
2023/05/01 01:57:09;;;;;;;11.23;4.60;;;;;;;5.73;72.91;101168.34;4897308;29;20044;-80
2023/05/01 01:59:35;;;;;;;3.88;3.58;;;;;;;5.73;74.13;101164.88;4897451;29;20048;-79
2023/05/01 02:02:04;;;;;;;6.82;3.92;;;;;;;5.72;74.39;101166.63;4867190;29;20044;-79
2023/05/01 02:04:32;;;;;;;7.80;3.80;;;;;;;5.72;74.55;101161.44;4897803;29;20041;-79
2023/05/01 02:07:01;;;;;;;9.20;5.00;;;;;;;5.70;74.58;101155.31;4897249;29;20063;-80
2023/05/01 02:09:29;;;;;;;8.90;4.47;;;;;;;5.70;74.45;101152.72;4898462;29;20044;-80
2023/05/01 02:11:57;;;;;;;9.85;4.43;;;;;;;5.72;73.86;101157.94;4881905;29;20041;-80
2023/05/01 02:14:26;;;;;;;14.13;5.05;;;;;;;5.70;74.01;101159.66;4884406;29;20036;-81
2023/05/01 02:16:55;;;;;;;9.73;4.93;;;;;;;5.67;73.73;101147.47;4909355;29;20052;-81
2023/05/01 02:19:22;;;;;;;9.48;4.45;;;;;;;5.66;73.59;101145.72;4905459;29;20040;-80
2023/05/01 02:21:50;;;;;;;9.98;4.78;;;;;;;5.67;73.83;101142.28;4882089;29;20076;-81
2023/05/01 02:24:17;;;;;;;11.07;6.38;;;;;;;5.63;74.07;101136.16;4885852;29;20356;-80
2023/05/01 02:26:51;;;;;;;8.07;4.40;;;;;;;5.60;74.00;101141.25;4900982;29;20044;-81
2023/05/01 02:29:18;;;;;;;;;;;;;;;5.59;74.49;101129.16;4900981;29;20047;-81
2023/05/01 02:31:45;;;;;;;7.18;4.05;;;;;;;5.56;74.54;101126.47;4869830;29;20274;-80
2023/05/01 02:34:11;;;;;;;7.78;4.05;;;;;;;5.53;74.93;101115.13;4900769;29;20392;-80
2023/05/01 02:36:37;;;;;;;10.68;4.07;;;;;;;5.51;75.64;101109.06;4885283;29;20069;-81
2023/05/01 02:39:04;;;;;;;9.45;5.05;;;;;;;5.51;75.90;101111.66;4900693;29;20040;-80
2023/05/01 02:41:33;;;;;;;10.07;3.85;;;;;;;5.49;74.79;101109.03;4870140;29;20457;-80
2023/05/01 02:44:05;;;;;;;6.47;4.45;;;;;;;5.45;75.05;101097.72;4869751;29;20120;-80
2023/05/01 02:46:36;;;;;;;9.75;4.45;;;;;;;5.47;75.10;101097.72;4869338;29;20135;-80
2023/05/01 02:49:04;;;;;;;7.28;4.43;;;;;;;5.44;74.64;101095.97;4885444;29;20048;-80
2023/05/01 02:51:31;;;;;;;11.27;5.13;;;;;;;5.45;74.74;101099.44;4885222;29;20041;-80
2023/05/01 02:53:59;;;;;;;11.52;4.60;;;;;;;5.44;75.08;101095.97;4885628;29;20393;-80
2023/05/01 02:56:26;;;;;;;7.63;4.55;;;;;;;5.43;75.15;101098.53;4900863;29;20043;-80
2023/05/01 02:58:53;;;;;;;11.50;5.03;;;;;;;5.40;75.79;101093.28;4885636;29;20052;-80
2023/05/01 03:01:20;;;;;;;6.63;3.88;;;;;;;5.34;75.71;101083.63;4885132;29;20047;-81
2023/05/01 03:03:47;;;;;;;9.75;4.50;;;;;;;5.30;75.80;101090.47;4885515;29;20132;-80
2023/05/01 03:06:14;;;;;;;9.43;4.18;;;;;;;5.26;75.86;101091.28;4900829;29;20036;-80
2023/05/01 03:08:40;;;;;;;8.32;5.03;;;;;;;5.23;76.45;101087.78;4900716;29;20519;-81
2023/05/01 03:11:10;;;;;;;10.35;6.35;;;;;;;5.21;76.86;101079.91;4885656;29;20049;-79
2023/05/01 03:13:36;;;;;;;7.75;5.22;;;;;;;5.20;77.13;101085.97;4900860;29;20041;-80
2023/05/01 03:16:04;;;;;;;11.82;4.90;;;;;;;5.17;77.07;101083.31;4869952;29;20389;-80
2023/05/01 03:18:32;;;;;;;9.32;4.45;;;;;;;5.12;77.64;101083.22;4885887;29;20468;-80
2023/05/01 03:20:58;;;;;;;7.90;4.78;;;;;;;5.07;77.49;101082.25;4885100;29;20479;-80
2023/05/01 03:23:26;;;;;;;8.57;4.00;;;;;;;5.07;78.18;101077.06;4884653;29;20036;-80
2023/05/01 03:25:53;;;;;;;10.75;5.05;;;;;;;5.09;78.24;101082.28;4901388;29;20044;-81
2023/05/01 03:28:22;;;;;;;12.00;4.55;;;;;;;5.04;78.43;101079.59;4884578;29;20119;-81
2023/05/01 03:30:51;;;;;;;9.65;5.57;;;;;;;5.02;78.70;101062.22;4899966;29;20041;-82
2023/05/01 03:33:17;;;;;;;6.70;3.78;;;;;;;4.99;78.90;101067.38;4884350;29;20082;-82
2023/05/01 03:35:44;;;;;;;6.55;4.03;;;;;;;4.98;78.76;101063.91;4884498;29;20119;-80
2023/05/01 03:38:10;;;;;;;7.93;4.30;;;;;;;4.98;78.92;101061.31;4869126;29;20040;-80
2023/05/01 03:40:37;;;;;;;10.02;4.65;;;;;;;4.96;79.30;101056.06;4884450;29;20040;-79
2023/05/01 03:43:03;;;;;;;7.45;3.97;;;;;;;4.96;80.13;101055.22;4884440;29;20052;-80
2023/05/01 03:45:30;;;;;;;9.85;4.22;;;;;;;4.97;80.59;101055.22;4884150;29;20064;-80
2023/05/01 03:47:57;;;;;;;9.55;5.32;;;;;;;4.96;80.56;101044.84;4884269;29;20076;-80
2023/05/01 03:50:24;;;;;;;10.27;4.13;;;;;;;4.96;80.88;101044.84;4884130;29;20044;-80
2023/05/01 03:52:50;;;;;;;9.05;4.57;;;;;;;4.93;80.89;101043.06;4883902;29;20051;-81
2023/05/01 03:55:16;;;;;;;10.50;4.93;;;;;;;4.91;81.02;101036.94;4883960;29;20041;-81
2023/05/01 03:57:45;;;;;;;10.73;4.38;;;;;;;4.94;81.55;101038.72;4883466;29;20472;-80
2023/05/01 04:00:13;;;;;;;6.88;5.13;;;;;;;4.90;81.56;101037.81;4887654;29;20036;-80
2023/05/01 04:02:39;;;;;;;10.88;5.28;;;;;;;4.90;82.28;101035.22;4884091;29;20044;-80
2023/05/01 04:05:06;;;;;;;11.45;5.05;;;;;;;4.86;83.16;101033.38;4883876;29;20047;-80
2023/05/01 04:07:33;;;;;;;9.30;5.22;;;;;;;4.84;82.77;101034.19;4899311;29;20056;-81
2023/05/01 04:09:59;;;;;;;7.22;5.15;;;;;;;4.80;83.72;101034.13;4883205;29;20516;-81
2023/05/01 04:12:26;;;;;;;8.85;4.03;;;;;;;4.81;84.49;101029.84;4883830;29;20105;-81
2023/05/01 04:14:52;;;;;;;7.30;4.85;;;;;;;4.82;85.48;101030.72;4884129;29;20048;-81
2023/05/01 04:17:19;;;;;;;10.50;4.95;;;;;;;4.82;85.03;101028.09;4900301;29;20121;-81
2023/05/01 04:19:46;;;;;;;10.43;5.07;;;;;;;4.79;85.71;101024.59;4883433;29;20045;-80
2023/05/01 04:22:13;;;;;;;7.82;4.63;;;;;;;4.79;85.18;101031.50;4900493;29;20044;-81
2023/05/01 04:24:39;;;;;;;9.57;5.13;;;;;;;4.78;85.56;101022.88;4898703;29;20040;-81
2023/05/01 04:27:06;;;;;;;6.20;4.85;;;;;;;4.79;84.56;101026.31;4883639;29;20040;-81
2023/05/01 04:29:32;;;;;;;7.53;5.32;;;;;;;4.79;84.55;101022.00;4883170;29;20048;-81
2023/05/01 04:31:59;;;;;;;7.57;4.75;;;;;;;4.79;84.52;101022.00;4883423;29;20036;-80
2023/05/01 04:34:28;;;;;;;7.47;4.38;;;;;;;4.83;84.50;101015.16;4883867;29;20040;-79
2023/05/01 04:36:56;;;;;;;7.57;4.60;;;;;;;4.86;83.97;101023.00;4883855;29;20196;-80
2023/05/01 04:39:23;;;;;;;7.78;4.70;;;;;;;4.91;83.28;101020.50;4898799;29;20043;-81
2023/05/01 04:41:50;;;;;;;7.68;4.35;;;;;;;4.95;82.67;101011.94;4898600;29;20046;-80
2023/05/01 04:44:16;;;;;;;7.82;5.13;;;;;;;4.95;82.09;101015.44;4882872;29;20050;-79
2023/05/01 04:46:43;;;;;;;9.48;4.57;;;;;;;5.00;81.98;101018.09;4897827;29;20075;-82
2023/05/01 04:49:10;;;;;;;8.18;4.32;;;;;;;5.06;81.56;101013.03;4867843;29;20048;-81
2023/05/01 04:51:37;;;;;;;10.95;4.75;;;;;;;5.11;80.81;101015.69;4898921;29;20048;-80
2023/05/01 04:54:04;;;;;;;8.52;5.22;;;;;;;5.16;80.53;101014.06;4883673;29;20037;-80
2023/05/01 04:56:31;;;;;;;12.63;5.75;;;;;;;5.18;80.39;101007.19;4900353;29;20039;-81
2023/05/01 04:58:57;;;;;;;7.97;4.93;;;;;;;5.23;79.81;101015.94;4883498;29;20036;-80
2023/05/01 05:01:24;;;;;;;7.30;4.63;;;;;;;5.30;79.25;101012.59;4868206;29;20045;-81
2023/05/01 05:03:50;;;;;;;8.35;4.45;;;;;;;5.37;78.72;101010.13;4884210;29;20121;-80
2023/05/01 05:06:17;;;;;;;8.60;5.00;;;;;;;5.43;78.47;101007.66;4869917;29;20049;-80
2023/05/01 05:08:44;;;;;;;9.68;4.93;;;;;;;5.50;78.32;101003.44;4902121;29;20040;-80
2023/05/01 05:11:10;;;;;;;7.60;5.05;;;;;;;5.58;77.83;101007.94;4886425;29;20067;-79
2023/05/01 05:13:37;;;;;;;9.50;4.50;;;;;;;5.64;76.86;101007.16;4886069;29;20119;-79
2023/05/01 05:16:04;;;;;;;10.73;5.28;;;;;;;5.73;76.33;101009.91;4870107;29;20045;-81
2023/05/01 05:18:30;;;;;;;9.00;4.82;;;;;;;5.75;76.17;101009.91;4901169;29;20041;-80
2023/05/01 05:20:57;;;;;;;6.50;4.13;;;;;;;5.81;75.89;101012.63;4885369;29;20132;-80
2023/05/01 05:23:23;;;;;;;7.35;4.70;;;;;;;5.83;75.47;101010.03;4886539;29;20044;-80
2023/05/01 05:25:50;;;;;;;8.30;5.32;;;;;;;5.84;75.32;101017.00;4904344;29;20467;-79
2023/05/01 05:28:17;;;;;;;6.60;4.60;;;;;;;5.84;74.76;101006.59;4887505;29;20065;-81
2023/05/01 05:30:43;;;;;;;7.07;4.57;;;;;;;5.84;74.61;101014.41;4886043;29;20116;-81
2023/05/01 05:33:10;;;;;;;6.97;4.30;;;;;;;5.85;74.96;101008.34;4900563;29;20060;-80
2023/05/01 05:35:37;;;;;;;6.50;4.80;;;;;;;5.91;74.57;101000.66;4883396;29;20044;-81
2023/05/01 05:38:03;;;;;;;10.60;5.03;;;;;;;5.91;73.96;101011.06;4883188;29;20495;-80
2023/05/01 05:40:30;;;;;;;10.13;5.32;;;;;;;5.90;74.08;101004.09;4867549;29;20099;-80
2023/05/01 05:42:57;;;;;;;11.20;4.60;;;;;;;5.93;73.68;101004.16;4866819;29;20078;-81
2023/05/01 05:45:24;;;;;;;10.20;6.30;;;;;;;5.96;73.56;101002.47;4897977;29;20049;-81
2023/05/01 05:47:51;;;;;;;7.07;5.18;;;;;;;6.03;73.48;100995.69;4897795;29;20053;-82
2023/05/01 05:50:17;;;;;;;8.27;4.40;;;;;;;6.13;72.59;100992.38;4898713;29;20140;-81
2023/05/01 05:52:44;;;;;;;19.83;6.05;;;;;;;6.23;72.20;100988.19;4882280;29;20048;-80
2023/05/01 05:55:10;;;;;;;9.88;5.03;;;;;;;6.38;72.09;100997.06;4881923;29;20514;-81
2023/05/01 05:57:37;;;;;;;5.40;4.60;;;;;;;6.52;71.37;100992.03;4881934;29;20384;-81
2023/05/01 06:00:05;;;;;;;8.95;4.57;;;;;;;6.71;70.57;100986.19;4897362;29;20037;-80
2023/05/01 06:02:32;;;;;;;8.82;4.03;;;;;;;6.91;70.08;100986.44;4897154;29;20075;-81
2023/05/01 06:04:59;;;;;;;8.13;3.95;;;;;;;7.12;68.91;100987.53;4866252;29;20123;-80
2023/05/01 06:07:29;;;;;;;10.10;4.43;;;;;;;7.29;68.08;100991.19;4882560;29;20048;-81
2023/05/01 06:10:00;;;;;;;9.52;4.97;;;;;;;7.34;67.21;100986.03;4881829;29;20044;-80
2023/05/01 06:12:28;;;;;;;6.10;4.47;;;;;;;7.50;66.84;100980.97;4898356;29;20048;-81
2023/05/01 06:14:55;;;;;;;5.40;3.60;;;;;;;7.66;66.21;100974.16;4897134;29;20135;-80
2023/05/01 06:17:22;;;;;;;5.97;3.85;;;;;;;7.76;65.46;100966.41;4881927;29;20056;-81
2023/05/01 06:19:49;;;;;;;6.20;3.55;;;;;;;7.89;65.29;100975.19;4907253;23;20388;-82
2023/05/01 06:22:15;;;;;;;6.28;4.15;;;;;;;7.95;64.86;100977.84;4938493;29;20141;-82
2023/05/01 06:24:42;;;;;;;10.43;4.03;;;;;;;8.00;64.22;100969.19;4937860;29;20049;-81
2023/05/01 06:27:08;;;;;;;8.43;4.70;;;;;;;8.04;63.76;100971.81;4922882;29;20047;-81
2023/05/01 06:29:35;;;;;;;5.57;3.17;;;;;;;8.15;63.75;100965.78;4954162;29;20098;-80
2023/05/01 06:32:02;;;;;;;5.13;3.47;;;;;;;8.34;63.38;100975.47;4938150;29;20053;-81
2023/05/01 06:34:29;;;;;;;10.15;4.05;;;;;;;8.53;61.92;100970.41;4922785;29;20369;-80
2023/05/01 06:36:56;;;;;;;8.45;4.30;;;;;;;8.70;61.16;100958.28;4938091;29;20479;-80
2023/05/01 06:39:23;;;;;;;8.40;3.83;;;;;;;8.86;59.56;100959.19;4955007;29;20130;-81
2023/05/01 06:41:50;;;;;;;8.05;4.35;;;;;;;9.07;58.81;100949.69;4938643;29;20529;-81
2023/05/01 06:44:16;;;;;;;7.95;3.10;;;;;;;9.21;58.14;100950.56;4922428;29;20497;-81
2023/05/01 06:46:43;;;;;;;4.47;2.90;;;;;;;9.39;57.32;100949.72;4938372;29;20047;-83
2023/05/01 06:49:09;;;;;;;8.95;3.35;;;;;;;9.55;56.21;100947.13;4938908;29;20078;-83
2023/05/01 06:51:36;;;;;;;6.22;3.25;;;;;;;9.70;56.70;100948.84;4938731;29;20038;-83
2023/05/01 06:54:03;;;;;;;4.47;3.22;;;;;;;9.94;56.43;100946.19;4938693;29;20406;-82
2023/05/01 06:56:32;;;;;;;6.65;3.95;;;;;;;10.10;55.42;100940.94;4939105;29;20077;-84
2023/05/01 06:58:58;;;;;;;7.72;3.45;;;;;;;10.27;54.60;100938.28;4954336;29;20118;-82
2023/05/01 07:01:25;;;;;;;6.70;3.15;;;;;;;10.51;54.36;100937.38;4938135;29;20478;-82
2023/05/01 07:03:51;;;;;;;5.28;3.40;;;;;;;10.61;53.48;100935.56;4938053;29;20126;-82
2023/05/01 07:06:18;;;;;;;7.00;3.78;;;;;;;10.78;53.61;100935.50;4938419;29;20050;-82
2023/05/01 07:08:44;;;;;;;7.35;3.25;;;;;;;11.05;52.59;100930.97;4940344;29;20066;-82
2023/05/01 07:11:11;;;;;;;3.15;2.85;;;;;;;11.30;50.58;100928.19;4926981;29;20130;-80
2023/05/01 07:13:38;;;;;;;7.60;3.20;;;;;;;11.58;50.74;100926.22;4941407;29;20043;-82
2023/05/01 07:16:05;;;;;;;2.85;2.33;;;;;;;12.06;50.06;100918.78;4942264;29;20117;-82
2023/05/01 07:18:33;;;;;;;3.80;2.45;;;;;;;12.57;48.74;100925.19;4942872;29;20039;-82
2023/05/01 07:21:00;;;;;;;5.32;2.38;;;;;;;12.86;47.57;100916.03;4942453;29;20145;-81
2023/05/01 07:23:28;;;;;;;4.25;2.60;;;;;;;13.00;46.32;100907.97;4943554;29;20050;-82
2023/05/01 07:25:54;;;;;;;4.07;2.67;;;;;;;13.39;44.66;100911.75;4959793;29;20039;-82
2023/05/01 07:28:21;;;;;;;4.00;1.92;;;;;;;13.79;44.44;100904.06;4927852;29;20409;-82
2023/05/01 07:30:48;;;;;;;3.28;1.92;;;;;;;14.31;43.55;100907.44;4943794;29;20049;-82
2023/05/01 07:33:15;;;;;;;7.65;2.58;;;;;;;14.64;42.14;100899.75;4943275;29;20043;-81
2023/05/01 07:35:41;;;;;;;2.95;2.22;;;;;;;15.07;41.97;100900.53;4959583;29;20118;-81
2023/05/01 07:38:08;;;;;;;6.75;2.53;;;;;;;15.25;40.34;100899.25;4943742;29;20102;-81
2023/05/01 07:40:35;;;;;;;4.70;2.35;;;;;;;15.11;39.90;100905.72;4944239;29;20075;-81
2023/05/01 07:43:02;;;;;;;9.52;2.53;;;;;;;15.14;39.51;100891.59;4959997;29;20060;-81
2023/05/01 07:45:29;;;;;;;4.57;2.22;;;;;;;15.54;39.55;100888.81;4960505;29;20047;-82
2023/05/01 07:47:58;;;;;;;4.95;2.17;;;;;;;15.84;38.41;100896.03;4959426;29;20542;-81
2023/05/01 07:50:25;;;;;;;4.25;2.78;;;;;;;15.77;38.86;100904.97;4943031;29;20039;-82
2023/05/01 07:52:53;;;;;;;4.93;2.20;;;;;;;16.07;38.53;100895.38;4943805;29;20043;-82
2023/05/01 07:55:22;;;;;;;4.65;2.13;;;;;;;16.64;36.96;100893.72;4943767;29;20057;-82
2023/05/01 07:57:49;;;;;;;4.10;2.30;;;;;;;16.57;37.14;100880.72;4943669;29;20031;-81
2023/05/01 08:00:17;;;;;;;3.72;1.92;;;;;;;16.54;36.18;100887.84;4943783;29;20043;-80
2023/05/01 08:02:44;;;;;;;3.10;2.20;;;;;;;16.42;37.39;100885.56;4962417;29;20504;-82
2023/05/01 08:05:10;;;;;;;4.18;2.45;;;;;;;16.52;37.26;100873.81;4947105;29;20046;-82
2023/05/01 08:07:37;;;;;;;5.07;2.63;;;;;;;16.72;37.11;100877.63;4944995;29;20039;-81
2023/05/01 08:10:04;;;;;;;3.88;2.25;;;;;;;16.37;37.37;100876.91;4960604;29;20039;-80
2023/05/01 08:12:31;;;;;;;6.03;3.08;;;;;;;16.81;37.04;100869.41;4928323;29;20146;-82
2023/05/01 08:14:57;;;;;;;2.80;2.33;;;;;;;17.04;37.12;100862.56;4960961;29;20075;-80
2023/05/01 08:17:24;;;;;;;3.55;2.83;;;;;;;17.50;36.69;100870.72;4946238;29;20111;-81
2023/05/01 08:19:52;;;;;;;3.17;2.42;;;;;;;17.78;36.01;100864.44;4947046;29;20043;-81
2023/05/01 08:22:19;;;;;;;5.90;2.88;;;;;;;18.32;35.95;100866.03;4960450;29;20057;-81
2023/05/01 08:24:49;;;;;;;5.57;3.42;;;;;;;18.71;35.00;100861.91;4931710;29;20043;-81
2023/05/01 08:27:16;;;;;;;4.57;2.75;;;;;;;18.60;35.77;100862.31;4943708;29;20039;-82
2023/05/01 08:29:42;;;;;;;5.30;3.05;;;;;;;18.94;34.80;100857.47;4959170;29;20039;-81
2023/05/01 08:32:09;;;;;;;3.78;2.60;;;;;;;18.50;34.90;100859.16;4943286;29;20225;-80
2023/05/01 08:34:35;;;;;;;5.97;3.03;;;;;;;19.40;33.98;100850.25;4941754;29;20094;-82
2023/05/01 08:37:03;;;;;;;6.63;3.50;;;;;;;19.67;33.51;100853.53;4957978;29;20039;-84
2023/05/01 08:39:30;;;;;;;4.35;2.92;;;;;;;20.08;32.60;100857.94;4942347;29;20047;-81
2023/05/01 08:41:58;;;;;;;6.80;3.25;;;;;;;19.98;32.26;100849.50;4958511;29;20038;-81
2023/05/01 08:44:28;;;;;;;3.58;2.38;;;;;;;20.58;31.81;100853.00;4941384;29;20043;-80
2023/05/01 08:47:14;;;;;;;3.03;2.83;;;;;;;20.71;31.69;100842.66;4924816;29;20043;-82
2023/05/01 08:49:42;;;;;;;4.90;2.67;;;;;;;20.88;31.03;100841.84;4941062;29;20051;-81
2023/05/01 08:52:12;;;;;;;4.47;2.60;;;;;;;20.64;31.86;100842.06;4924522;29;20039;-82
2023/05/01 08:54:43;;;;;;;4.82;2.65;;;;;;;20.68;31.82;100843.63;4924390;29;20054;-81
2023/05/01 08:57:13;;;;;;;2.67;2.47;;;;;;;20.47;32.17;100845.53;4955868;29;20039;-81
2023/05/01 08:59:41;;;;;;;2.53;2.33;;;;;;;21.24;31.53;100832.97;4909445;29;20071;-82
2023/05/01 09:02:11;;;;;;;6.60;3.33;;;;;;;21.90;30.72;100832.22;4940484;29;20039;-81
2023/05/01 09:04:40;;;;;;;3.72;2.80;;;;;;;21.89;30.17;100833.13;4924158;29;20043;-82
2023/05/01 09:07:08;;;;;;;5.07;2.42;;;;;;;22.89;29.70;100828.53;4924293;29;20057;-81
2023/05/01 09:09:37;;;;;;;3.45;2.65;;;;;;;23.71;28.20;100826.41;4940033;29;20131;-81
2023/05/01 09:12:16;;;;;;;4.03;2.60;;;;;;;23.25;28.86;100828.22;4940663;29;20050;-82
2023/05/01 09:14:44;;;;;;;5.35;2.92;;;;;;;23.39;28.79;100824.72;4939293;29;20110;-81
2023/05/01 09:17:13;;;;;;;4.38;3.60;;;;;;;23.54;28.33;100820.25;4939784;29;20102;-82
2023/05/01 09:19:40;;;;;;;3.47;2.80;;;;;;;24.17;28.23;100818.22;4938750;28;20039;-81
2023/05/01 09:22:09;;;;;;;8.75;2.75;;;;;;;24.49;27.47;100811.75;4923614;29;20122;-82
2023/05/01 09:24:36;;;;;;;3.88;2.95;;;;;;;24.94;26.96;100807.88;4939317;29;20054;-81
2023/05/01 09:27:02;;;;;;;5.97;3.50;;;;;;;25.58;26.94;100817.84;4939601;29;20035;-83
2023/05/01 09:29:49;;;;;;;5.13;2.53;;;;;;;25.70;25.76;100812.59;4940699;29;20122;-82
2023/05/01 09:32:21;;;;;;;3.13;2.20;;;;;;;25.67;25.81;100807.44;4939409;29;20050;-80
2023/05/01 09:35:17;;;;;;;7.35;2.78;;;;;;;26.27;24.78;100802.31;4924856;29;20043;-81
2023/05/01 09:37:50;;;;;;;2.92;2.65;;;;;;;26.76;24.97;100804.09;4939076;29;20046;-81
2023/05/01 09:40:16;;;;;;;2.25;2.05;;;;;;;27.77;24.52;100791.03;4939735;29;20047;-82
2023/05/01 09:42:51;;;;;;;6.43;2.45;;;;;;;28.36;23.51;100793.44;4939136;29;20114;-82
2023/05/01 09:45:19;;;;;;;4.20;3.15;;;;;;;28.43;23.00;100784.88;4939556;29;20074;-82
2023/05/01 09:47:46;;;;;;;4.68;2.78;;;;;;;28.47;23.25;100784.47;4939385;29;20050;-81
2023/05/01 09:50:34;;;;;;;3.97;2.53;;;;;;;29.04;22.55;100782.44;4938895;29;20082;-84
2023/05/01 09:53:10;;;;;;;4.30;3.13;;;;;;;28.77;22.40;100779.41;4939945;29;20042;-83
2023/05/01 09:55:38;;;;;;;4.38;3.40;;;;;;;28.51;23.06;100782.38;4942911;29;20102;-83
2023/05/01 09:58:27;;;;;;;3.33;2.50;;;;;;;28.55;22.92;100781.16;4942230;29;20053;-82
2023/05/01 10:01:01;;;;;;;5.10;2.25;;;;;;;27.93;23.29;100777.22;4940372;29;20039;-80
2023/05/01 10:03:29;;;;;;;3.80;2.42;;;;;;;28.10;23.43;100775.91;4938666;29;20047;-83
2023/05/01 10:05:59;;;;;;;2.55;2.35;;;;;;;28.55;22.66;100775.75;4923125;29;20090;-82
2023/05/01 10:08:26;;;;;;;4.47;2.67;;;;;;;28.62;22.67;100771.59;4923471;29;20050;-81
2023/05/01 10:11:03;;;;;;;3.17;2.45;;;;;;;29.07;22.01;100770.53;4955962;29;20122;-82
2023/05/01 10:13:30;;;;;;;3.42;2.58;;;;;;;28.50;22.85;100773.47;4938600;29;20067;-82
2023/05/01 10:15:59;;;;;;;6.38;2.47;;;;;;;28.43;23.12;100768.72;4939366;29;20038;-81
2023/05/01 10:18:26;;;;;;;3.20;2.90;;;;;;;28.68;23.13;100767.53;4939188;29;20143;-81
2023/05/01 10:20:53;;;;;;;2.58;2.38;;;;;;;28.85;23.09;100768.81;4925830;29;20073;-81
2023/05/01 10:23:19;;;;;;;3.28;2.42;;;;;;;28.73;22.46;100764.47;4940745;29;20054;-81
2023/05/01 10:25:48;;;;;;;2.67;2.40;;;;;;;28.22;23.14;100758.72;4922965;29;20137;-81
2023/05/01 10:28:14;;;;;;;5.07;2.88;;;;;;;27.72;23.84;100764.53;4938800;29;20046;-85
2023/05/01 10:30:42;;;;;;;4.63;2.58;;;;;;;28.19;23.50;100754.47;4938449;29;20050;-81
2023/05/01 10:33:08;;;;;;;3.63;3.00;;;;;;;28.76;22.80;100751.63;4938608;29;20125;-81
2023/05/01 10:35:39;;;;;;;4.93;2.85;;;;;;;28.78;22.54;100741.53;4938455;29;20043;-81
2023/05/01 10:38:11;;;;;;;3.47;2.42;;;;;;;29.42;22.20;100745.09;4922969;29;20520;-82
2023/05/01 10:40:45;;;;;;;4.82;2.53;;;;;;;30.22;21.31;100752.47;4938837;29;20402;-81
2023/05/01 10:43:27;;;;;;;3.33;2.30;;;;;;;31.18;20.15;100748.13;4938970;29;20051;-82
2023/05/01 10:46:15;;;;;;;3.97;2.20;;;;;;;32.07;19.66;100737.78;4943966;29;20125;-81
2023/05/01 10:48:42;;;;;;;3.83;3.35;;;;;;;31.92;19.24;100733.88;4941918;29;20079;-80
2023/05/01 10:51:20;;;;;;;3.10;2.55;;;;;;;31.77;19.51;100737.09;4959227;29;20126;-81
2023/05/01 10:54:13;;;;;;;6.45;2.83;;;;;;;30.84;20.65;100734.19;4942183;29;20051;-81
2023/05/01 10:56:45;;;;;;;3.53;2.38;;;;;;;29.81;21.00;100739.84;4941687;29;20077;-81
2023/05/01 10:59:11;;;;;;;2.78;2.30;;;;;;;29.48;21.98;100727.53;4942885;29;20047;-81
2023/05/01 11:01:43;;;;;;;3.65;2.10;;;;;;;30.07;21.51;100720.50;4941628;29;20078;-81
2023/05/01 11:04:20;;;;;;;3.08;2.35;;;;;;;30.83;20.78;100718.97;4942134;29;20039;-81
2023/05/01 11:07:03;;;;;;;4.63;2.47;;;;;;;31.82;19.78;100706.88;4959043;29;20054;-81
2023/05/01 11:09:42;;;;;;;3.85;2.63;;;;;;;32.37;18.64;100711.34;4959516;29;20077;-81
2023/05/01 11:12:12;;;;;;;3.95;2.42;;;;;;;32.85;19.52;100709.25;4959803;29;20065;-82
2023/05/01 11:14:56;;;;;;;3.40;2.63;;;;;;;33.14;17.94;100702.63;4942002;29;20051;-81
2023/05/01 11:17:41;;;;;;;1.88;1.58;;;;;;;32.79;17.95;100696.34;4961775;29;20043;-82
2023/05/01 11:20:28;;;;;;;1.88;1.70;;;;;;;32.77;18.28;100698.34;4962784;28;20074;-82
2023/05/01 11:22:56;;;;;;;2.63;2.22;;;;;;;32.01;18.99;100700.47;4948225;29;20047;-81
2023/05/01 11:25:26;;;;;;;2.13;2.00;;;;;;;31.56;19.37;100693.16;4943741;29;20043;-82
2023/05/01 11:27:59;;;;;;;3.40;2.50;;;;;;;31.51;19.14;100696.31;4943933;29;20047;-82
2023/05/01 11:30:26;;;;;;;3.22;1.98;;;;;;;31.93;19.27;100698.53;4927493;29;20098;-81
2023/05/01 11:32:52;;;;;;;2.50;1.95;;;;;;;32.63;19.06;100686.16;4927943;29;20035;-82
2023/05/01 11:35:25;;;;;;;1.50;1.40;;;;;;;33.68;18.69;100688.03;4943655;29;20371;-81
2023/05/01 11:37:54;;;;;;;1.75;1.65;;;;;;;34.40;17.46;100691.06;4928258;29;20046;-82
2023/05/01 11:40:26;;;;;;;4.13;2.17;;;;;;;34.72;16.84;100685.78;4927059;29;20043;-81